Time,TemperatureF,DewpointF,PressureIn,WindDirection,WindDirectionDegrees,WindSpeedMPH,WindSpeedGustMPH,Humidity,HourlyPrecipIn,Conditions,Clouds,dailyrainin,SoftwareType,DateUTC
2013-08-20 00:13:00,65.0,64.0,30.19,South,170,0.0,0.0,98,0.00,,,0.58,,2013-08-20 04:13:00,
2013-08-20 00:23:00,65.0,64.0,30.19,South,170,0.0,0.0,98,0.00,,,0.57,,2013-08-20 04:23:00,
2013-08-20 00:53:00,64.0,63.0,30.19,South,170,0.0,0.0,98,0.00,,,0.57,,2013-08-20 04:53:00,
2013-08-20 01:22:00,63.0,62.0,30.19,South,170,0.0,0.0,98,0.00,,,0.46,,2013-08-20 05:22:00,
2013-08-20 01:52:00,63.0,62.0,30.19,South,170,0.0,0.0,98,0.00,,,0.46,,2013-08-20 05:52:00,
2013-08-20 02:21:00,63.0,62.0,30.18,South,170,0.0,0.0,98,0.00,,,0.27,,2013-08-20 06:21:00,
2013-08-20 02:52:00,63.0,63.0,30.17,South,170,0.0,0.0,99,0.00,,,0.27,,2013-08-20 06:52:00,
2013-08-20 03:22:00,63.0,63.0,30.16,South,170,0.0,0.0,99,0.00,,,0.20,,2013-08-20 07:22:00,
2013-08-20 03:52:00,64.0,64.0,30.17,South,170,0.0,0.0,99,0.00,,,0.20,,2013-08-20 07:52:00,
2013-08-20 04:22:00,64.0,64.0,30.16,South,170,0.0,0.0,99,0.00,,,0.17,,2013-08-20 08:22:00,
2013-08-20 04:52:00,64.0,64.0,30.16,South,170,0.0,0.0,99,0.00,,,0.17,,2013-08-20 08:52:00,
2013-08-20 05:21:00,63.0,63.0,30.16,South,170,0.0,0.0,99,0.00,,,0.15,,2013-08-20 09:21:00,
2013-08-20 05:42:00,63.0,63.0,30.17,South,170,0.0,0.0,99,0.00,,,0.15,,2013-08-20 09:42:00,
2013-08-20 05:53:00,64.0,64.0,30.17,South,170,0.0,0.0,99,0.00,,,0.15,,2013-08-20 09:53:00,
2013-08-20 06:23:00,63.0,63.0,30.18,South,170,0.0,0.0,99,0.00,,,0.12,,2013-08-20 10:23:00,
2013-08-20 06:52:00,63.0,63.0,30.18,South,170,0.0,0.0,99,0.00,,,0.12,,2013-08-20 10:52:00,
2013-08-20 07:02:00,63.0,63.0,30.18,South,170,0.0,0.0,99,0.00,,,0.12,,2013-08-20 11:02:00,
2013-08-20 07:11:00,63.0,63.0,30.18,South,170,0.0,0.0,99,0.00,,,0.12,,2013-08-20 11:11:00,
2013-08-20 07:22:00,64.0,64.0,30.19,South,170,0.0,0.0,99,0.00,,,0.09,,2013-08-20 11:22:00,
2013-08-20 07:52:00,64.0,64.0,30.20,South,170,0.0,0.0,99,0.00,,,0.09,,2013-08-20 11:52:00,
2013-08-20 08:12:00,65.0,65.0,30.20,South,170,0.0,0.0,99,0.00,,,0.09,,2013-08-20 12:12:00,
2013-08-20 08:21:00,65.0,65.0,30.20,South,170,0.0,0.0,99,0.00,,,0.07,,2013-08-20 12:21:00,
2013-08-20 08:52:00,65.0,65.0,30.21,SSW,204,0.0,0.0,99,0.00,,,0.07,,2013-08-20 12:52:00,
2013-08-20 09:22:00,66.0,66.0,30.21,WSW,250,0.0,0.0,99,0.00,,,0.07,,2013-08-20 13:22:00,
2013-08-20 09:52:00,68.0,68.0,30.22,WSW,250,0.0,0.0,99,0.00,,,0.07,,2013-08-20 13:52:00,
2013-08-20 10:22:00,70.0,69.0,30.23,South,173,0.0,3.0,98,0.00,,,0.07,,2013-08-20 14:22:00,
2013-08-20 10:52:00,71.0,69.0,30.23,WNW,297,1.0,3.0,92,0.00,,,0.07,,2013-08-20 14:52:00,
2013-08-20 11:11:00,73.0,70.0,30.23,SSW,202,1.0,3.0,89,0.00,,,0.07,,2013-08-20 15:11:00,
2013-08-20 11:22:00,74.0,70.0,30.24,West,281,2.0,4.0,87,0.00,,,0.07,,2013-08-20 15:22:00,
2013-08-20 11:54:00,75.0,71.0,30.24,WSW,244,3.0,6.0,87,0.00,,,0.07,,2013-08-20 15:54:00,
2013-08-20 12:30:00,-999.0,-99.9,30.24,West,267,2.0,3.0,84,0.00,,,0.05,,2013-08-20 16:30:00,
2013-08-20 12:53:00,76.0,70.0,30.24,West,265,2.0,5.0,83,0.00,,,0.05,,2013-08-20 16:53:00,
2013-08-20 13:03:00,76.0,70.0,30.24,West,265,2.0,5.0,83,0.00,,,0.05,,2013-08-20 17:03:00,
2013-08-20 13:12:00,76.0,70.0,30.24,West,265,2.0,5.0,83,0.00,,,0.05,,2013-08-20 17:12:00,
2013-08-20 13:24:00,78.0,71.0,30.24,SSW,209,2.0,6.0,80,0.00,,,0.03,,2013-08-20 17:24:00,
2013-08-20 13:52:00,78.0,71.0,30.24,West,264,3.0,6.0,79,0.00,,,0.03,,2013-08-20 17:52:00,
2013-08-20 14:12:00,79.0,72.0,30.23,SW,221,3.0,5.0,80,0.00,,,0.03,,2013-08-20 18:12:00,
2013-08-20 14:22:00,79.0,71.0,30.23,SSE,160,2.0,6.0,76,0.00,,,0.01,,2013-08-20 18:22:00,
2013-08-20 14:52:00,80.0,72.0,30.22,SE,143,1.0,5.0,76,0.00,,,0.01,,2013-08-20 18:52:00,
2013-08-20 15:22:00,80.0,71.0,30.21,SSW,208,2.0,5.0,75,0.00,,,0.00,,2013-08-20 19:22:00,
2013-08-20 15:53:00,80.0,72.0,30.19,SE,127,2.0,6.0,77,0.00,,,0.00,,2013-08-20 19:53:00,
2013-08-20 16:12:00,80.0,70.0,30.19,SSW,209,2.0,5.0,72,0.00,,,0.00,,2013-08-20 20:12:00,
2013-08-20 16:22:00,81.0,72.0,30.19,SSE,165,2.0,4.0,74,0.00,,,0.00,,2013-08-20 20:22:00,
2013-08-20 16:52:00,80.0,72.0,30.18,ESE,117,2.0,5.0,78,0.00,,,0.00,,2013-08-20 20:52:00,
2013-08-20 17:22:00,80.0,71.0,30.18,South,186,3.0,5.0,75,0.00,,,0.00,,2013-08-20 21:22:00,
2013-08-20 17:55:00,79.0,72.0,30.18,South,184,2.0,5.0,78,0.00,,,0.00,,2013-08-20 21:55:00,
2013-08-20 18:24:00,78.0,71.0,30.19,SSE,163,2.0,5.0,80,0.00,,,0.00,,2013-08-20 22:24:00,
2013-08-20 18:54:00,77.0,71.0,30.18,SSW,199,2.0,4.0,82,0.00,,,0.00,,2013-08-20 22:54:00,
2013-08-20 19:22:00,77.0,72.0,30.19,SSW,200,2.0,4.0,84,0.00,,,0.00,,2013-08-20 23:22:00,
2013-08-20 19:53:00,76.0,72.0,30.21,SE,138,2.0,3.0,87,0.00,,,0.00,,2013-08-20 23:53:00,
2013-08-20 20:23:00,74.0,71.0,30.21,SW,228,0.0,3.0,90,0.00,,,0.00,,2013-08-21 00:23:00,
2013-08-20 20:42:00,73.0,70.0,30.21,South,184,0.0,3.0,91,0.00,,,0.00,,2013-08-21 00:42:00,
2013-08-20 20:52:00,73.0,71.0,30.22,South,171,0.0,2.0,92,0.00,,,0.00,,2013-08-21 00:52:00,
2013-08-20 21:22:00,72.0,70.0,30.22,South,172,0.0,1.0,93,0.00,,,0.00,,2013-08-21 01:22:00,
2013-08-20 21:42:00,71.0,69.0,30.22,South,172,1.0,1.0,94,0.00,,,0.00,,2013-08-21 01:42:00,
2013-08-20 21:52:00,71.0,69.0,30.23,South,172,0.0,0.0,95,0.00,,,0.00,,2013-08-21 01:52:00,
2013-08-20 22:12:00,70.0,69.0,30.23,South,172,0.0,0.0,96,0.00,,,0.00,,2013-08-21 02:12:00,
2013-08-20 22:22:00,70.0,69.0,30.23,South,172,0.0,0.0,96,0.00,,,0.00,,2013-08-21 02:22:00,
2013-08-20 22:52:00,69.0,68.0,30.23,South,172,0.0,0.0,97,0.00,,,0.00,,2013-08-21 02:52:00,
2013-08-20 23:12:00,69.0,68.0,30.23,South,172,0.0,0.0,96,0.00,,,0.00,,2013-08-21 03:12:00,
2013-08-20 23:23:00,68.0,67.0,30.23,South,172,0.0,0.0,97,0.00,,,0.00,,2013-08-21 03:23:00,
2013-08-20 23:55:00,67.0,66.0,30.24,South,172,0.0,0.0,97,0.00,,,0.00,,2013-08-21 03:55:00,